Decoded Metar for CYQB (QUEBEC in QC, CANADA) (IATA:YQB) | Meteo·Mobile Aviation Weather
aviador You're here:

CYQB Decoded Metar

QUEBEC in QC, CANADA
Report Time2019-03-22 14:18:00
UTC Time2019-03-22 14:55:12
Flight Rules mvfr MVFR
WindVRB at 02 kt
Visibility9656 m
Phenomena:Mist
Clouds:Scattered 003 Hf
Broken 021 Hf
Overcast 038 Hf
Ceiling2,100 ft
Temp01°C (ISA -14)
Dew Point01°C (100% RH)
AAT-1.6°C
QNH1002 hPa
Density Alt-942 ft
Elevation240 ft
Report Wrong Elevation
Raw Report
SPECI CYQB 221418Z VRB02KT 6SM BR SCT003 BKN021 OVC038 01/01 A2959
RMK SF3SC3SC2 VIS NE 30 PRESFR SLP025=

Extra information for CYQB:More info

Metar Taf Metar & Taf Last 4 Metars F.Rules Stats Wind Profile Meteogram Temp Stats Airport Information Weather charts Add Link Nearby VenuesMetar ALERT Operation Metar Decoded Social comments

navcanada